N527J SCDA-SCIE
Flight info
| Callsign | N527J |
|---|---|
| Flight time | N/A |
| Altitude | 7000 |
| Route | REBOL4B REBOL UV204 FAG DCT DAT/N0217F090 DCT TOY UT105 SOSTA SOSTA6C |
| Aircraft | AEST/L-SDFGRY/S |
Departure
| Time | 2026-04-18 21:16 |
|---|---|
| Airport | Diego Aracena International Airport (SCDA) |
Arrival
| Time | N/A |
|---|---|
| Airport | Carriel Sur International Airport (SCIE) |
| Time | Latitude | Longitude | Altitude | Speed | Heading |
|---|---|---|---|---|---|
| 2026-04-18 21:04 | -20.53490 | -70.17835 | 169 ft | 0 kts | 97° |
| 2026-04-18 21:10 | -20.53490 | -70.17834 | 169 ft | 0 kts | 100° |
| 2026-04-18 21:10 | -20.53493 | -70.17830 | 169 ft | 3 kts | 149° |
| 2026-04-18 21:10 | -20.53523 | -70.17847 | 169 ft | 0 kts | 193° |
| 2026-04-18 21:11 | -20.53526 | -70.17848 | 170 ft | 1 kts | 179° |
| 2026-04-18 21:11 | -20.53538 | -70.17846 | 170 ft | 0 kts | 171° |
| 2026-04-18 21:11 | -20.53547 | -70.17846 | 170 ft | 3 kts | 179° |
| 2026-04-18 21:12 | -20.53575 | -70.17860 | 170 ft | 6 kts | 255° |
| 2026-04-18 21:12 | -20.53576 | -70.17910 | 170 ft | 7 kts | 271° |
| 2026-04-18 21:12 | -20.53574 | -70.17936 | 170 ft | 0 kts | 273° |
| 2026-04-18 21:12 | -20.53544 | -70.17956 | 170 ft | 18 kts | 6° |
| 2026-04-18 21:13 | -20.53415 | -70.17947 | 170 ft | 20 kts | 2° |
| 2026-04-18 21:13 | -20.53270 | -70.17939 | 170 ft | 22 kts | 5° |
| 2026-04-18 21:13 | -20.53114 | -70.17930 | 169 ft | 23 kts | 3° |
| 2026-04-18 21:13 | -20.52945 | -70.17921 | 169 ft | 25 kts | 5° |
| 2026-04-18 21:14 | -20.52817 | -70.17989 | 169 ft | 21 kts | 278° |
| 2026-04-18 21:14 | -20.52716 | -70.18079 | 170 ft | 25 kts | 3° |
| 2026-04-18 21:14 | -20.52539 | -70.18074 | 171 ft | 26 kts | 4° |
| 2026-04-18 21:14 | -20.52313 | -70.18059 | 169 ft | 37 kts | 2° |
| 2026-04-18 21:15 | -20.52137 | -70.18082 | 170 ft | 16 kts | 327° |
| 2026-04-18 21:15 | -20.52034 | -70.18085 | 170 ft | 18 kts | 78° |
| 2026-04-18 21:15 | -20.52130 | -70.18049 | 170 ft | 42 kts | 182° |
| 2026-04-18 21:15 | -20.52632 | -70.18064 | 253 ft | 84 kts | 182° |
| 2026-04-18 21:16 | -20.53240 | -70.18025 | 660 ft | 88 kts | 178° |
| 2026-04-18 21:16 | -20.53926 | -70.18001 | 1020 ft | 109 kts | 183° |
| 2026-04-18 21:16 | -20.54756 | -70.18006 | 1321 ft | 128 kts | 185° |
| 2026-04-18 21:16 | -20.55662 | -70.18101 | 1690 ft | 133 kts | 189° |
| 2026-04-18 21:17 | -20.56607 | -70.18251 | 2041 ft | 138 kts | 189° |
| 2026-04-18 21:17 | -20.57569 | -70.18363 | 2494 ft | 143 kts | 186° |
| 2026-04-18 21:17 | -20.58585 | -70.18459 | 2917 ft | 149 kts | 186° |
| 2026-04-18 21:17 | -20.59625 | -70.18546 | 3330 ft | 150 kts | 185° |
| 2026-04-18 21:18 | -20.60673 | -70.18624 | 3715 ft | 151 kts | 186° |
| 2026-04-18 21:18 | -20.61727 | -70.18715 | 4093 ft | 152 kts | 188° |
| 2026-04-18 21:18 | -20.62777 | -70.18827 | 4475 ft | 152 kts | 189° |
| 2026-04-18 21:18 | -20.63832 | -70.18943 | 4830 ft | 153 kts | 189° |
| 2026-04-18 21:19 | -20.64895 | -70.19060 | 5160 ft | 154 kts | 188° |
| 2026-04-18 21:19 | -20.65947 | -70.19147 | 5480 ft | 154 kts | 187° |
| 2026-04-18 21:19 | -20.67013 | -70.19228 | 5801 ft | 153 kts | 188° |
| 2026-04-18 21:19 | -20.68078 | -70.19321 | 6114 ft | 153 kts | 188° |
| 2026-04-18 21:20 | -20.69136 | -70.19431 | 6418 ft | 153 kts | 187° |
| 2026-04-18 21:20 | -20.70192 | -70.19532 | 6706 ft | 152 kts | 187° |
| 2026-04-18 21:20 | -20.71249 | -70.19621 | 6977 ft | 153 kts | 187° |
| 2026-04-18 21:20 | -20.72320 | -70.19724 | 7211 ft | 155 kts | 187° |
| 2026-04-18 21:21 | -20.73399 | -70.19831 | 7456 ft | 156 kts | 187° |
| 2026-04-18 21:21 | -20.74482 | -70.19933 | 7700 ft | 156 kts | 186° |
| 2026-04-18 21:21 | -20.75555 | -70.20029 | 7933 ft | 157 kts | 186° |
| 2026-04-18 21:21 | -20.76652 | -70.20120 | 8174 ft | 158 kts | 186° |
| 2026-04-18 21:22 | -20.77739 | -70.20221 | 8408 ft | 157 kts | 187° |
| 2026-04-18 21:22 | -20.78822 | -70.20336 | 8640 ft | 156 kts | 187° |
| 2026-04-18 21:22 | -20.79903 | -70.20448 | 8860 ft | 156 kts | 187° |
| 2026-04-18 21:22 | -20.80984 | -70.20550 | 9070 ft | 156 kts | 186° |
| 2026-04-18 21:23 | -20.82065 | -70.20641 | 9265 ft | 156 kts | 185° |
| 2026-04-18 21:23 | -20.83145 | -70.20731 | 9469 ft | 156 kts | 185° |
| 2026-04-18 21:23 | -20.84219 | -70.20829 | 9667 ft | 154 kts | 185° |
| 2026-04-18 21:23 | -20.85271 | -70.20932 | 9813 ft | 156 kts | 185° |
| 2026-04-18 21:24 | -20.86355 | -70.21038 | 9954 ft | 157 kts | 185° |
| 2026-04-18 21:24 | -20.87444 | -70.21141 | 10071 ft | 159 kts | 185° |
| 2026-04-18 21:24 | -20.88599 | -70.21248 | 10027 ft | 173 kts | 185° |
| 2026-04-18 21:24 | -20.89823 | -70.21363 | 10018 ft | 179 kts | 185° |
| 2026-04-18 21:25 | -20.91084 | -70.21482 | 10016 ft | 185 kts | 185° |
| 2026-04-18 21:25 | -20.92394 | -70.21605 | 10016 ft | 192 kts | 185° |
| 2026-04-18 21:25 | -20.93746 | -70.21730 | 10016 ft | 197 kts | 185° |
| 2026-04-18 21:25 | -20.95105 | -70.21857 | 10014 ft | 195 kts | 185° |
| 2026-04-18 21:26 | -20.96440 | -70.21982 | 10017 ft | 195 kts | 185° |
| 2026-04-18 21:26 | -20.97788 | -70.22110 | 10010 ft | 195 kts | 185° |
| 2026-04-18 21:26 | -20.99136 | -70.22238 | 10021 ft | 193 kts | 185° |
| 2026-04-18 21:26 | -21.00471 | -70.22360 | 10019 ft | 193 kts | 185° |
| 2026-04-18 21:27 | -21.01804 | -70.22482 | 10014 ft | 192 kts | 185° |
| 2026-04-18 21:27 | -21.03134 | -70.22606 | 10016 ft | 192 kts | 185° |
| 2026-04-18 21:27 | -21.04462 | -70.22732 | 10017 ft | 192 kts | 185° |
| 2026-04-18 21:27 | -21.05773 | -70.22857 | 10017 ft | 192 kts | 185° |
| 2026-04-18 21:28 | -21.07099 | -70.22983 | 10017 ft | 191 kts | 185° |
| 2026-04-18 21:28 | -21.08429 | -70.23106 | 10017 ft | 192 kts | 185° |
| 2026-04-18 21:28 | -21.09764 | -70.23230 | 10018 ft | 193 kts | 185° |
| 2026-04-18 21:28 | -21.11102 | -70.23356 | 10017 ft | 193 kts | 185° |
| 2026-04-18 21:29 | -21.12442 | -70.23482 | 10017 ft | 193 kts | 185° |
| 2026-04-18 21:29 | -21.13784 | -70.23609 | 10020 ft | 194 kts | 185° |
| 2026-04-18 21:29 | -21.15126 | -70.23736 | 10019 ft | 194 kts | 185° |
| 2026-04-18 21:29 | -21.16469 | -70.23862 | 10019 ft | 194 kts | 185° |
| 2026-04-18 21:30 | -21.17811 | -70.23986 | 10023 ft | 193 kts | 185° |
| 2026-04-18 21:30 | -21.19133 | -70.24111 | 10022 ft | 194 kts | 185° |
| 2026-04-18 21:30 | -21.20475 | -70.24237 | 10024 ft | 194 kts | 185° |
| 2026-04-18 21:30 | -21.21818 | -70.24363 | 10024 ft | 194 kts | 185° |
| 2026-04-18 21:31 | -21.23165 | -70.24490 | 10023 ft | 194 kts | 185° |
| 2026-04-18 21:31 | -21.24513 | -70.24617 | 10021 ft | 195 kts | 185° |
| 2026-04-18 21:31 | -21.25865 | -70.24744 | 10020 ft | 195 kts | 185° |
| 2026-04-18 21:31 | -21.27220 | -70.24874 | 10020 ft | 196 kts | 185° |
| 2026-04-18 21:32 | -21.28578 | -70.24999 | 10020 ft | 196 kts | 185° |
| 2026-04-18 21:32 | -21.29940 | -70.25124 | 10021 ft | 196 kts | 185° |
| 2026-04-18 21:32 | -21.31281 | -70.25250 | 10020 ft | 196 kts | 185° |
| 2026-04-18 21:32 | -21.32640 | -70.25380 | 10021 ft | 196 kts | 185° |
| 2026-04-18 21:33 | -21.33998 | -70.25511 | 10021 ft | 196 kts | 185° |
| 2026-04-18 21:33 | -21.35358 | -70.25639 | 10021 ft | 196 kts | 185° |
| 2026-04-18 21:33 | -21.36705 | -70.25765 | 10020 ft | 192 kts | 185° |
| 2026-04-18 21:33 | -21.38039 | -70.25888 | 10020 ft | 193 kts | 185° |
| 2026-04-18 21:34 | -21.39375 | -70.26015 | 10024 ft | 193 kts | 185° |
| 2026-04-18 21:34 | -21.40712 | -70.26142 | 10023 ft | 193 kts | 185° |
| 2026-04-18 21:34 | -21.42049 | -70.26267 | 10023 ft | 193 kts | 185° |
| 2026-04-18 21:34 | -21.43365 | -70.26392 | 10023 ft | 192 kts | 185° |
| 2026-04-18 21:35 | -21.44699 | -70.26518 | 10020 ft | 192 kts | 185° |
| 2026-04-18 21:35 | -21.46033 | -70.26643 | 10021 ft | 192 kts | 185° |
| 2026-04-18 21:35 | -21.47367 | -70.26768 | 10020 ft | 192 kts | 185° |
| 2026-04-18 21:35 | -21.48700 | -70.26894 | 10021 ft | 192 kts | 185° |
| 2026-04-18 21:36 | -21.50033 | -70.27020 | 10023 ft | 193 kts | 185° |
| 2026-04-18 21:36 | -21.51368 | -70.27147 | 10026 ft | 193 kts | 185° |
| 2026-04-18 21:36 | -21.52702 | -70.27273 | 10026 ft | 193 kts | 185° |
| 2026-04-18 21:36 | -21.54022 | -70.27397 | 10025 ft | 193 kts | 185° |
| 2026-04-18 21:37 | -21.55361 | -70.27522 | 10024 ft | 193 kts | 185° |
| 2026-04-18 21:37 | -21.56699 | -70.27649 | 10024 ft | 193 kts | 185° |
| 2026-04-18 21:37 | -21.58038 | -70.27776 | 10022 ft | 193 kts | 185° |
| 2026-04-18 21:37 | -21.59374 | -70.27902 | 10023 ft | 193 kts | 185° |
| 2026-04-18 21:38 | -21.60712 | -70.28028 | 10023 ft | 193 kts | 185° |
| 2026-04-18 21:38 | -21.62070 | -70.28156 | 10027 ft | 197 kts | 185° |
| 2026-04-18 21:38 | -21.63412 | -70.28285 | 10025 ft | 195 kts | 185° |
| 2026-04-18 21:38 | -21.64738 | -70.28412 | 10025 ft | 192 kts | 185° |
| 2026-04-18 21:39 | -21.66075 | -70.28536 | 10029 ft | 193 kts | 185° |
| 2026-04-18 21:39 | -21.67413 | -70.28661 | 10028 ft | 193 kts | 185° |
| 2026-04-18 21:39 | -21.68751 | -70.28788 | 10029 ft | 193 kts | 185° |
| 2026-04-18 21:39 | -21.70088 | -70.28916 | 10028 ft | 193 kts | 185° |
| 2026-04-18 21:40 | -21.71425 | -70.29043 | 10031 ft | 193 kts | 185° |
| 2026-04-18 21:40 | -21.72764 | -70.29170 | 10029 ft | 193 kts | 185° |
| 2026-04-18 21:40 | -21.74101 | -70.29294 | 10029 ft | 193 kts | 185° |
| 2026-04-18 21:40 | -21.75420 | -70.29418 | 10028 ft | 193 kts | 185° |
| 2026-04-18 21:41 | -21.76755 | -70.29546 | 10029 ft | 193 kts | 185° |
| 2026-04-18 21:41 | -21.78089 | -70.29674 | 10027 ft | 192 kts | 185° |
| 2026-04-18 21:41 | -21.79423 | -70.29800 | 10029 ft | 192 kts | 185° |
| 2026-04-18 21:41 | -21.80758 | -70.29926 | 10029 ft | 193 kts | 185° |
| 2026-04-18 21:42 | -21.82093 | -70.30051 | 10029 ft | 193 kts | 185° |
| 2026-04-18 21:42 | -21.83432 | -70.30179 | 10030 ft | 193 kts | 185° |
| 2026-04-18 21:42 | -21.84782 | -70.30308 | 10029 ft | 197 kts | 185° |
| 2026-04-18 21:42 | -21.86143 | -70.30438 | 10029 ft | 196 kts | 185° |
| 2026-04-18 21:43 | -21.87484 | -70.30563 | 10029 ft | 196 kts | 185° |
| 2026-04-18 21:43 | -21.88846 | -70.30690 | 10031 ft | 197 kts | 185° |
| 2026-04-18 21:43 | -21.90211 | -70.30819 | 10031 ft | 197 kts | 185° |
| 2026-04-18 21:43 | -21.91577 | -70.30952 | 10032 ft | 197 kts | 185° |
| 2026-04-18 21:44 | -21.92944 | -70.31079 | 10031 ft | 197 kts | 185° |
| 2026-04-18 21:44 | -21.94311 | -70.31199 | 10032 ft | 197 kts | 185° |
| 2026-04-18 21:44 | -21.95679 | -70.31316 | 10031 ft | 197 kts | 185° |
| 2026-04-18 21:44 | -21.97046 | -70.31435 | 10031 ft | 197 kts | 185° |
| 2026-04-18 21:45 | -21.98395 | -70.31555 | 10030 ft | 197 kts | 185° |
| 2026-04-18 21:45 | -21.99760 | -70.31677 | 10031 ft | 197 kts | 185° |
| 2026-04-18 21:45 | -22.01125 | -70.31798 | 10031 ft | 197 kts | 185° |
| 2026-04-18 21:45 | -22.02480 | -70.31917 | 10031 ft | 191 kts | 185° |
| 2026-04-18 21:46 | -22.03788 | -70.32032 | 10032 ft | 192 kts | 185° |
| 2026-04-18 21:46 | -22.05138 | -70.32148 | 10031 ft | 195 kts | 185° |
| 2026-04-18 21:46 | -22.06451 | -70.32270 | 10030 ft | 188 kts | 185° |
| 2026-04-18 21:46 | -22.07784 | -70.32385 | 10031 ft | 195 kts | 185° |
| 2026-04-18 21:47 | -22.09120 | -70.32502 | 10032 ft | 189 kts | 185° |
| 2026-04-18 21:47 | -22.10451 | -70.32619 | 10032 ft | 194 kts | 185° |
| 2026-04-18 21:47 | -22.11760 | -70.32736 | 10032 ft | 189 kts | 185° |
| 2026-04-18 21:47 | -22.13096 | -70.32855 | 10031 ft | 194 kts | 185° |
| 2026-04-18 21:48 | -22.14422 | -70.32973 | 10034 ft | 191 kts | 185° |
| 2026-04-18 21:48 | -22.15764 | -70.33088 | 10034 ft | 195 kts | 185° |
| 2026-04-18 21:48 | -22.17096 | -70.33207 | 10035 ft | 190 kts | 185° |
| 2026-04-18 21:48 | -22.18431 | -70.33326 | 10034 ft | 194 kts | 185° |
| 2026-04-18 21:49 | -22.19758 | -70.33445 | 10037 ft | 191 kts | 185° |
| 2026-04-18 21:49 | -22.21102 | -70.33563 | 10038 ft | 193 kts | 185° |
| 2026-04-18 21:49 | -22.22410 | -70.33679 | 10033 ft | 193 kts | 184° |
| 2026-04-18 21:49 | -22.23763 | -70.33795 | 10034 ft | 194 kts | 185° |
| 2026-04-18 21:50 | -22.25085 | -70.33915 | 10032 ft | 192 kts | 185° |
| 2026-04-18 21:50 | -22.26432 | -70.34035 | 10032 ft | 192 kts | 185° |
| 2026-04-18 21:50 | -22.27763 | -70.34151 | 10030 ft | 195 kts | 185° |
| 2026-04-18 21:50 | -22.29115 | -70.34269 | 10031 ft | 191 kts | 185° |
| 2026-04-18 21:51 | -22.30441 | -70.34388 | 10031 ft | 194 kts | 185° |
| 2026-04-18 21:51 | -22.31781 | -70.34512 | 10031 ft | 188 kts | 185° |
| 2026-04-18 21:51 | -22.33108 | -70.34628 | 10032 ft | 195 kts | 185° |
| 2026-04-18 21:51 | -22.34468 | -70.34744 | 10032 ft | 196 kts | 185° |
| 2026-04-18 21:52 | -22.35797 | -70.34861 | 10032 ft | 192 kts | 185° |
| 2026-04-18 21:52 | -22.37136 | -70.34981 | 10031 ft | 195 kts | 185° |
| 2026-04-18 21:52 | -22.38474 | -70.35102 | 10031 ft | 193 kts | 185° |
| 2026-04-18 21:52 | -22.39820 | -70.35221 | 10031 ft | 195 kts | 185° |
| 2026-04-18 21:53 | -22.41165 | -70.35339 | 10033 ft | 194 kts | 185° |
| 2026-04-18 21:53 | -22.42512 | -70.35459 | 10033 ft | 192 kts | 185° |
| 2026-04-18 21:53 | -22.43845 | -70.35582 | 10033 ft | 195 kts | 185° |
| 2026-04-18 21:53 | -22.45201 | -70.35698 | 10034 ft | 195 kts | 185° |
| 2026-04-18 21:54 | -22.46544 | -70.35816 | 10034 ft | 194 kts | 185° |
| 2026-04-18 21:54 | -22.47884 | -70.35934 | 10034 ft | 195 kts | 185° |
| 2026-04-18 21:54 | -22.49217 | -70.36056 | 10033 ft | 194 kts | 185° |
| 2026-04-18 21:54 | -22.50572 | -70.36177 | 10033 ft | 195 kts | 185° |
| 2026-04-18 21:55 | -22.51909 | -70.36295 | 10034 ft | 195 kts | 185° |
| 2026-04-18 21:55 | -22.53271 | -70.36411 | 10031 ft | 197 kts | 185° |
| 2026-04-18 21:55 | -22.54628 | -70.36534 | 10030 ft | 191 kts | 185° |
| 2026-04-18 21:55 | -22.55956 | -70.36658 | 10031 ft | 195 kts | 185° |
| 2026-04-18 21:56 | -22.57316 | -70.36775 | 10034 ft | 197 kts | 185° |
| 2026-04-18 21:56 | -22.58660 | -70.36893 | 10035 ft | 195 kts | 185° |
| 2026-04-18 21:56 | -22.60002 | -70.37015 | 10033 ft | 194 kts | 185° |
| 2026-04-18 21:56 | -22.61359 | -70.37135 | 10034 ft | 196 kts | 185° |
| 2026-04-18 21:57 | -22.62714 | -70.37257 | 10034 ft | 194 kts | 185° |
| 2026-04-18 21:57 | -22.64063 | -70.37375 | 10035 ft | 196 kts | 185° |
| 2026-04-18 21:57 | -22.65423 | -70.37494 | 10035 ft | 196 kts | 185° |
| 2026-04-18 21:57 | -22.66785 | -70.37616 | 10034 ft | 196 kts | 185° |
| 2026-04-18 21:58 | -22.68132 | -70.37740 | 10035 ft | 194 kts | 185° |
| 2026-04-18 21:58 | -22.69469 | -70.37858 | 10035 ft | 196 kts | 185° |
| 2026-04-18 21:58 | -22.70834 | -70.37977 | 10034 ft | 197 kts | 185° |
| 2026-04-18 21:58 | -22.72189 | -70.38099 | 10034 ft | 195 kts | 185° |
| 2026-04-18 21:59 | -22.73544 | -70.38221 | 10034 ft | 196 kts | 185° |
| 2026-04-18 21:59 | -22.74906 | -70.38339 | 10035 ft | 197 kts | 185° |
| 2026-04-18 21:59 | -22.76271 | -70.38461 | 10035 ft | 196 kts | 185° |
| 2026-04-18 21:59 | -22.77622 | -70.38585 | 10034 ft | 195 kts | 185° |
| 2026-04-18 22:00 | -22.78982 | -70.38707 | 10036 ft | 197 kts | 185° |
| 2026-04-18 22:00 | -22.80346 | -70.38827 | 10038 ft | 197 kts | 185° |
| 2026-04-18 22:00 | -22.81689 | -70.38948 | 10038 ft | 196 kts | 185° |
| 2026-04-18 22:00 | -22.83048 | -70.39070 | 10036 ft | 196 kts | 185° |
| 2026-04-18 22:01 | -22.84408 | -70.39190 | 10037 ft | 196 kts | 185° |
| 2026-04-18 22:01 | -22.85770 | -70.39309 | 10036 ft | 196 kts | 185° |
| 2026-04-18 22:01 | -22.87132 | -70.39431 | 10035 ft | 197 kts | 185° |
| 2026-04-18 22:01 | -22.88495 | -70.39554 | 10035 ft | 197 kts | 185° |
| 2026-04-18 22:02 | -22.89860 | -70.39677 | 10034 ft | 197 kts | 185° |
| 2026-04-18 22:02 | -22.90763 | -70.39757 | 10035 ft | 197 kts | 185° |
| 2026-04-18 22:02 | -22.92125 | -70.39879 | 10035 ft | 197 kts | 185° |
| 2026-04-18 22:02 | -22.93932 | -70.40040 | 10035 ft | 197 kts | 185° |
| 2026-04-18 22:03 | -22.95297 | -70.40163 | 10034 ft | 197 kts | 185° |
| 2026-04-18 22:03 | -22.96662 | -70.40285 | 10034 ft | 197 kts | 185° |
| 2026-04-18 22:03 | -22.98026 | -70.40407 | 10034 ft | 197 kts | 185° |
| 2026-04-18 22:03 | -22.99390 | -70.40529 | 10035 ft | 197 kts | 185° |
| 2026-04-18 22:04 | -23.00294 | -70.40609 | 10035 ft | 197 kts | 185° |
| 2026-04-18 22:04 | -23.01657 | -70.40731 | 10037 ft | 197 kts | 185° |
| 2026-04-18 22:04 | -23.03026 | -70.40854 | 10037 ft | 197 kts | 185° |
| 2026-04-18 22:04 | -23.04392 | -70.40977 | 10037 ft | 197 kts | 185° |
| 2026-04-18 22:05 | -23.06203 | -70.41140 | 10038 ft | 197 kts | 185° |
| 2026-04-18 22:05 | -23.07571 | -70.41261 | 10037 ft | 197 kts | 185° |
| 2026-04-18 22:05 | -23.08494 | -70.41343 | 10039 ft | 197 kts | 185° |
| 2026-04-18 22:05 | -23.09843 | -70.41465 | 10039 ft | 197 kts | 185° |
| 2026-04-18 22:06 | -23.11210 | -70.41589 | 10039 ft | 197 kts | 185° |
| 2026-04-18 22:06 | -23.12576 | -70.41711 | 10039 ft | 197 kts | 185° |
| 2026-04-18 22:06 | -23.13939 | -70.41833 | 10042 ft | 197 kts | 185° |
| 2026-04-18 22:06 | -23.15302 | -70.41954 | 10043 ft | 196 kts | 185° |
| 2026-04-18 22:07 | -23.17104 | -70.42116 | 10040 ft | 196 kts | 185° |
| 2026-04-18 22:07 | -23.18465 | -70.42238 | 10040 ft | 196 kts | 185° |
| 2026-04-18 22:07 | -23.19386 | -70.42321 | 10040 ft | 196 kts | 185° |
| 2026-04-18 22:07 | -23.20749 | -70.42443 | 10042 ft | 197 kts | 185° |
| 2026-04-18 22:08 | -23.22096 | -70.42565 | 10043 ft | 197 kts | 185° |
| 2026-04-18 22:08 | -23.23461 | -70.42687 | 10042 ft | 197 kts | 185° |
| 2026-04-18 22:08 | -23.24827 | -70.42810 | 10043 ft | 197 kts | 185° |
| 2026-04-18 22:08 | -23.26193 | -70.42932 | 10044 ft | 197 kts | 185° |
| 2026-04-18 22:09 | -23.27562 | -70.43055 | 10045 ft | 197 kts | 185° |
| 2026-04-18 22:09 | -23.28930 | -70.43178 | 10045 ft | 197 kts | 185° |
| 2026-04-18 22:09 | -23.30297 | -70.43302 | 10045 ft | 197 kts | 185° |
| 2026-04-18 22:09 | -23.31663 | -70.43425 | 10044 ft | 197 kts | 185° |
| 2026-04-18 22:10 | -23.33011 | -70.43546 | 10045 ft | 197 kts | 185° |
| 2026-04-18 22:10 | -23.34379 | -70.43668 | 10045 ft | 197 kts | 185° |
| 2026-04-18 22:10 | -23.35747 | -70.43791 | 10045 ft | 197 kts | 185° |
| 2026-04-18 22:10 | -23.37117 | -70.43914 | 10045 ft | 197 kts | 185° |
| 2026-04-18 22:11 | -23.38484 | -70.44038 | 10045 ft | 197 kts | 185° |
| 2026-04-18 22:11 | -23.39850 | -70.44162 | 10045 ft | 197 kts | 185° |
| 2026-04-18 22:11 | -23.41214 | -70.44285 | 10045 ft | 197 kts | 185° |
| 2026-04-18 22:11 | -23.42577 | -70.44407 | 10045 ft | 196 kts | 185° |
| 2026-04-18 22:12 | -23.45275 | -70.44649 | 10046 ft | 196 kts | 185° |
| 2026-04-18 22:12 | -23.46632 | -70.44772 | 10045 ft | 196 kts | 185° |
| 2026-04-18 22:12 | -23.47988 | -70.44891 | 10045 ft | 195 kts | 185° |
| 2026-04-18 22:13 | -23.49339 | -70.45001 | 10045 ft | 194 kts | 184° |
| 2026-04-18 22:13 | -23.50682 | -70.45108 | 10045 ft | 193 kts | 184° |
| 2026-04-18 22:13 | -23.52022 | -70.45220 | 10045 ft | 193 kts | 185° |
| 2026-04-18 22:13 | -23.53361 | -70.45335 | 10045 ft | 193 kts | 185° |
| 2026-04-18 22:14 | -23.54684 | -70.45450 | 10045 ft | 193 kts | 185° |
| 2026-04-18 22:14 | -23.56025 | -70.45563 | 10045 ft | 193 kts | 185° |
| 2026-04-18 22:14 | -23.57366 | -70.45675 | 10045 ft | 193 kts | 184° |
| 2026-04-18 22:14 | -23.58710 | -70.45785 | 10045 ft | 194 kts | 184° |
| 2026-04-18 22:15 | -23.60055 | -70.45897 | 10042 ft | 195 kts | 185° |
| 2026-04-18 22:15 | -23.61411 | -70.46012 | 10044 ft | 196 kts | 185° |
| 2026-04-18 22:15 | -23.62770 | -70.46128 | 10044 ft | 195 kts | 185° |
| 2026-04-18 22:15 | -23.64118 | -70.46244 | 10045 ft | 194 kts | 185° |
| 2026-04-18 22:16 | -23.65462 | -70.46354 | 10049 ft | 194 kts | 185° |
| 2026-04-18 22:16 | -23.66809 | -70.46466 | 10047 ft | 194 kts | 185° |
| 2026-04-18 22:16 | -23.68133 | -70.46577 | 10046 ft | 193 kts | 185° |
| 2026-04-18 22:16 | -23.69473 | -70.46691 | 10047 ft | 193 kts | 185° |
| 2026-04-18 22:17 | -23.70812 | -70.46804 | 10045 ft | 193 kts | 185° |
| 2026-04-18 22:17 | -23.72151 | -70.46916 | 10045 ft | 193 kts | 185° |
| 2026-04-18 22:17 | -23.73491 | -70.47029 | 10045 ft | 193 kts | 185° |
| 2026-04-18 22:17 | -23.74831 | -70.47141 | 10047 ft | 193 kts | 185° |
| 2026-04-18 22:18 | -23.76165 | -70.47257 | 10046 ft | 192 kts | 184° |
| 2026-04-18 22:18 | -23.77500 | -70.47369 | 10048 ft | 193 kts | 184° |
| 2026-04-18 22:18 | -23.78843 | -70.47478 | 10047 ft | 195 kts | 184° |
| 2026-04-18 22:18 | -23.80180 | -70.47590 | 10047 ft | 196 kts | 184° |
| 2026-04-18 22:19 | -23.81538 | -70.47705 | 10048 ft | 196 kts | 184° |
| 2026-04-18 22:19 | -23.82897 | -70.47822 | 10048 ft | 196 kts | 184° |
| 2026-04-18 22:19 | -23.84255 | -70.47937 | 10048 ft | 196 kts | 184° |
| 2026-04-18 22:19 | -23.85612 | -70.48051 | 10048 ft | 196 kts | 184° |
| 2026-04-18 22:20 | -23.86969 | -70.48165 | 10047 ft | 195 kts | 184° |
| 2026-04-18 22:20 | -23.88323 | -70.48279 | 10047 ft | 195 kts | 184° |
| 2026-04-18 22:20 | -23.89678 | -70.48393 | 10048 ft | 195 kts | 184° |
| 2026-04-18 22:20 | -23.91014 | -70.48507 | 10047 ft | 195 kts | 184° |
| 2026-04-18 22:21 | -23.92367 | -70.48621 | 10049 ft | 195 kts | 184° |
| 2026-04-18 22:21 | -23.93719 | -70.48735 | 10049 ft | 195 kts | 184° |
| 2026-04-18 22:21 | -23.95072 | -70.48848 | 10048 ft | 195 kts | 184° |
| 2026-04-18 22:21 | -23.96424 | -70.48963 | 10047 ft | 195 kts | 184° |
| 2026-04-18 22:22 | -23.97774 | -70.49078 | 10048 ft | 195 kts | 184° |
| 2026-04-18 22:22 | -23.99124 | -70.49193 | 10048 ft | 195 kts | 184° |
| 2026-04-18 22:22 | -24.00475 | -70.49306 | 10049 ft | 195 kts | 184° |
| 2026-04-18 22:22 | -24.01809 | -70.49417 | 10048 ft | 195 kts | 184° |
| 2026-04-18 22:23 | -24.03162 | -70.49532 | 10048 ft | 195 kts | 184° |
| 2026-04-18 22:23 | -24.04516 | -70.49648 | 10046 ft | 195 kts | 184° |
| 2026-04-18 22:23 | -24.05868 | -70.49764 | 10051 ft | 195 kts | 184° |
| 2026-04-18 22:23 | -24.07217 | -70.49877 | 10047 ft | 194 kts | 184° |
| 2026-04-18 22:24 | -24.08561 | -70.49989 | 10047 ft | 194 kts | 184° |
| 2026-04-18 22:24 | -24.09903 | -70.50102 | 10048 ft | 193 kts | 184° |
| 2026-04-18 22:24 | -24.11245 | -70.50217 | 10048 ft | 193 kts | 184° |
| 2026-04-18 22:24 | -24.12588 | -70.50333 | 10049 ft | 194 kts | 184° |
| 2026-04-18 22:25 | -24.13933 | -70.50446 | 10050 ft | 194 kts | 184° |
| 2026-04-18 22:25 | -24.15261 | -70.50558 | 10049 ft | 194 kts | 184° |
| 2026-04-18 22:25 | -24.16607 | -70.50671 | 10050 ft | 194 kts | 184° |
| 2026-04-18 22:25 | -24.17954 | -70.50784 | 10050 ft | 195 kts | 184° |
| 2026-04-18 22:26 | -24.19305 | -70.50900 | 10051 ft | 195 kts | 184° |
| 2026-04-18 22:26 | -24.20659 | -70.51017 | 10051 ft | 195 kts | 184° |
| 2026-04-18 22:26 | -24.22015 | -70.51131 | 10050 ft | 196 kts | 184° |
| 2026-04-18 22:26 | -24.23373 | -70.51245 | 10052 ft | 196 kts | 184° |
| 2026-04-18 22:27 | -24.24732 | -70.51359 | 10050 ft | 196 kts | 184° |
| 2026-04-18 22:27 | -24.26070 | -70.51473 | 10051 ft | 196 kts | 184° |
| 2026-04-18 22:27 | -24.27426 | -70.51589 | 10051 ft | 195 kts | 184° |
| 2026-04-18 22:27 | -24.28784 | -70.51705 | 10051 ft | 196 kts | 184° |
| 2026-04-18 22:28 | -24.30145 | -70.51821 | 10050 ft | 196 kts | 184° |
| 2026-04-18 22:28 | -24.31504 | -70.51936 | 10051 ft | 196 kts | 184° |
| 2026-04-18 22:28 | -24.32864 | -70.52051 | 10051 ft | 196 kts | 184° |
| 2026-04-18 22:28 | -24.34223 | -70.52166 | 10051 ft | 196 kts | 184° |
| 2026-04-18 22:29 | -24.35582 | -70.52290 | 10054 ft | 196 kts | 184° |
| 2026-04-18 22:29 | -24.36939 | -70.52408 | 10053 ft | 196 kts | 182° |
| 2026-04-18 22:29 | -24.38277 | -70.52508 | 10051 ft | 195 kts | 182° |
| 2026-04-18 22:29 | -24.39631 | -70.52615 | 10052 ft | 195 kts | 183° |
| 2026-04-18 22:30 | -24.40984 | -70.52732 | 10050 ft | 195 kts | 184° |
| 2026-04-18 22:30 | -24.42336 | -70.52857 | 10052 ft | 195 kts | 184° |
| 2026-04-18 22:30 | -24.43687 | -70.52978 | 10052 ft | 195 kts | 183° |
| 2026-04-18 22:30 | -24.45036 | -70.53091 | 10054 ft | 195 kts | 183° |
| 2026-04-18 22:31 | -24.46387 | -70.53201 | 10054 ft | 194 kts | 183° |
| 2026-04-18 22:31 | -24.47736 | -70.53313 | 10057 ft | 195 kts | 183° |
| 2026-04-18 22:31 | -24.49088 | -70.53429 | 10055 ft | 195 kts | 183° |
| 2026-04-18 22:31 | -24.50424 | -70.53545 | 10055 ft | 195 kts | 183° |
| 2026-04-18 22:32 | -24.51776 | -70.53662 | 10056 ft | 195 kts | 183° |
| 2026-04-18 22:32 | -24.53128 | -70.53777 | 10057 ft | 195 kts | 183° |
| 2026-04-18 22:32 | -24.54481 | -70.53891 | 10056 ft | 195 kts | 183° |
| 2026-04-18 22:32 | -24.55834 | -70.54006 | 10057 ft | 197 kts | 183° |
| 2026-04-18 22:33 | -24.57230 | -70.54115 | 10060 ft | 198 kts | 185° |
| 2026-04-18 22:33 | -24.58592 | -70.54244 | 10052 ft | 195 kts | 185° |
| 2026-04-18 22:33 | -24.59944 | -70.54369 | 10060 ft | 195 kts | 184° |
| 2026-04-18 22:33 | -24.61296 | -70.54482 | 10058 ft | 195 kts | 184° |
| 2026-04-18 22:34 | -24.62633 | -70.54587 | 10056 ft | 196 kts | 184° |
| 2026-04-18 22:34 | -24.63990 | -70.54695 | 10058 ft | 195 kts | 184° |
| 2026-04-18 22:34 | -24.65347 | -70.54814 | 10056 ft | 196 kts | 185° |
| 2026-04-18 22:34 | -24.66714 | -70.54938 | 10057 ft | 198 kts | 185° |
| 2026-04-18 22:35 | -24.68091 | -70.55060 | 10056 ft | 199 kts | 184° |
| 2026-04-18 22:35 | -24.69475 | -70.55172 | 10058 ft | 199 kts | 184° |
| 2026-04-18 22:35 | -24.70853 | -70.55284 | 10056 ft | 198 kts | 184° |
| 2026-04-18 22:35 | -24.72210 | -70.55402 | 10055 ft | 199 kts | 184° |
| 2026-04-18 22:36 | -24.73589 | -70.55523 | 10052 ft | 199 kts | 184° |
| 2026-04-18 22:36 | -24.74963 | -70.55643 | 10056 ft | 198 kts | 184° |
| 2026-04-18 22:36 | -24.76334 | -70.55760 | 10055 ft | 197 kts | 184° |
| 2026-04-18 22:36 | -24.77703 | -70.55876 | 10056 ft | 197 kts | 184° |
| 2026-04-18 22:37 | -24.79072 | -70.55991 | 10058 ft | 198 kts | 184° |
| 2026-04-18 22:37 | -24.80442 | -70.56108 | 10058 ft | 197 kts | 184° |
| 2026-04-18 22:37 | -24.81814 | -70.56228 | 10059 ft | 199 kts | 184° |
| 2026-04-18 22:37 | -24.83198 | -70.56348 | 10059 ft | 199 kts | 184° |
| 2026-04-18 22:38 | -24.84562 | -70.56463 | 10055 ft | 200 kts | 184° |
| 2026-04-18 22:38 | -24.85947 | -70.56579 | 10056 ft | 200 kts | 184° |
| 2026-04-18 22:38 | -24.87330 | -70.56698 | 10056 ft | 199 kts | 184° |
| 2026-04-18 22:38 | -24.88707 | -70.56817 | 10056 ft | 198 kts | 184° |
| 2026-04-18 22:39 | -24.90078 | -70.56936 | 10056 ft | 198 kts | 184° |
| 2026-04-18 22:39 | -24.91452 | -70.57054 | 10056 ft | 197 kts | 184° |
| 2026-04-18 22:39 | -24.92821 | -70.57171 | 10056 ft | 197 kts | 184° |
| 2026-04-18 22:39 | -24.94195 | -70.57290 | 10056 ft | 199 kts | 184° |
| 2026-04-18 22:40 | -24.95558 | -70.57405 | 10059 ft | 199 kts | 184° |
| 2026-04-18 22:40 | -24.96938 | -70.57520 | 10056 ft | 199 kts | 184° |
| 2026-04-18 22:40 | -24.98318 | -70.57641 | 10056 ft | 199 kts | 185° |
| 2026-04-18 22:40 | -24.99698 | -70.57764 | 10056 ft | 199 kts | 185° |
| 2026-04-18 22:41 | -25.01079 | -70.57883 | 10056 ft | 199 kts | 184° |
| 2026-04-18 22:41 | -25.02455 | -70.57999 | 10056 ft | 198 kts | 184° |
| 2026-04-18 22:41 | -25.03834 | -70.58115 | 10056 ft | 199 kts | 184° |
| 2026-04-18 22:41 | -25.05209 | -70.58233 | 10056 ft | 198 kts | 185° |
| 2026-04-18 22:42 | -25.06581 | -70.58353 | 10056 ft | 198 kts | 185° |
| 2026-04-18 22:42 | -25.07954 | -70.58472 | 10056 ft | 198 kts | 185° |
| 2026-04-18 22:42 | -25.09309 | -70.58588 | 10056 ft | 198 kts | 184° |
| 2026-04-18 22:42 | -25.10683 | -70.58706 | 10056 ft | 198 kts | 184° |
| 2026-04-18 22:43 | -25.12057 | -70.58823 | 10056 ft | 198 kts | 185° |
| 2026-04-18 22:43 | -25.13434 | -70.58942 | 10056 ft | 199 kts | 185° |
| 2026-04-18 22:43 | -25.14813 | -70.59061 | 10056 ft | 199 kts | 185° |
| 2026-04-18 22:43 | -25.16194 | -70.59181 | 10056 ft | 199 kts | 184° |
| 2026-04-18 22:44 | -25.17573 | -70.59299 | 10056 ft | 199 kts | 184° |
| 2026-04-18 22:44 | -25.18949 | -70.59417 | 10056 ft | 198 kts | 184° |
| 2026-04-18 22:44 | -25.20307 | -70.59534 | 10056 ft | 198 kts | 184° |
| 2026-04-18 22:44 | -25.21680 | -70.59653 | 10056 ft | 198 kts | 185° |
| 2026-04-18 22:45 | -25.23053 | -70.59772 | 10056 ft | 198 kts | 184° |
| 2026-04-18 22:45 | -25.24427 | -70.59890 | 10056 ft | 198 kts | 184° |
| 2026-04-18 22:45 | -25.25801 | -70.60005 | 10056 ft | 199 kts | 185° |
| 2026-04-18 22:45 | -25.27180 | -70.60125 | 10056 ft | 199 kts | 185° |
| 2026-04-18 22:46 | -25.28559 | -70.60247 | 10053 ft | 199 kts | 185° |
| 2026-04-18 22:46 | -25.29936 | -70.60368 | 10053 ft | 199 kts | 185° |
| 2026-04-18 22:46 | -25.31298 | -70.60485 | 10053 ft | 199 kts | 185° |
| 2026-04-18 22:46 | -25.32679 | -70.60602 | 10053 ft | 199 kts | 185° |
| 2026-04-18 22:47 | -25.34059 | -70.60719 | 10053 ft | 199 kts | 185° |
| 2026-04-18 22:47 | -25.35439 | -70.60839 | 10056 ft | 199 kts | 185° |
| 2026-04-18 22:47 | -25.36820 | -70.60960 | 10056 ft | 199 kts | 185° |
| 2026-04-18 22:47 | -25.38199 | -70.61079 | 10056 ft | 199 kts | 185° |
| 2026-04-18 22:48 | -25.39581 | -70.61198 | 10059 ft | 199 kts | 185° |
| 2026-04-18 22:48 | -25.40961 | -70.61317 | 10059 ft | 199 kts | 185° |
| 2026-04-18 22:48 | -25.42340 | -70.61438 | 10059 ft | 199 kts | 185° |
| 2026-04-18 22:48 | -25.43703 | -70.61556 | 10056 ft | 199 kts | 185° |
| 2026-04-18 22:49 | -25.45082 | -70.61673 | 10056 ft | 199 kts | 185° |
| 2026-04-18 22:49 | -25.46461 | -70.61791 | 10055 ft | 199 kts | 185° |
| 2026-04-18 22:49 | -25.47839 | -70.61912 | 10056 ft | 199 kts | 185° |
| 2026-04-18 22:49 | -25.49219 | -70.62033 | 10056 ft | 199 kts | 185° |
| 2026-04-18 22:50 | -25.50597 | -70.62152 | 10056 ft | 199 kts | 185° |
| 2026-04-18 22:50 | -25.51978 | -70.62271 | 10056 ft | 199 kts | 185° |
| 2026-04-18 22:50 | -25.53343 | -70.62389 | 10056 ft | 200 kts | 185° |
| 2026-04-18 22:50 | -25.54727 | -70.62509 | 10061 ft | 200 kts | 185° |
| 2026-04-18 22:51 | -25.56114 | -70.62628 | 10060 ft | 200 kts | 185° |
| 2026-04-18 22:51 | -25.57503 | -70.62749 | 10059 ft | 200 kts | 185° |
| 2026-04-18 22:51 | -25.58890 | -70.62872 | 10060 ft | 200 kts | 185° |
| 2026-04-18 22:51 | -25.60280 | -70.62994 | 10059 ft | 200 kts | 185° |
| 2026-04-18 22:52 | -25.61667 | -70.63113 | 10058 ft | 200 kts | 185° |
| 2026-04-18 22:52 | -25.63056 | -70.63230 | 10059 ft | 200 kts | 185° |
| 2026-04-18 22:52 | -25.64444 | -70.63350 | 10058 ft | 200 kts | 185° |
| 2026-04-18 22:52 | -25.65832 | -70.63472 | 10059 ft | 200 kts | 185° |
| 2026-04-18 22:53 | -25.67201 | -70.63593 | 10059 ft | 200 kts | 185° |
| 2026-04-18 22:53 | -25.68590 | -70.63714 | 10058 ft | 200 kts | 185° |
| 2026-04-18 22:53 | -25.69980 | -70.63834 | 10059 ft | 201 kts | 185° |
| 2026-04-18 22:53 | -25.71373 | -70.63953 | 10058 ft | 200 kts | 185° |
| 2026-04-18 22:54 | -25.72764 | -70.64073 | 10058 ft | 201 kts | 185° |
| 2026-04-18 22:54 | -25.74156 | -70.64195 | 10058 ft | 201 kts | 185° |
| 2026-04-18 22:54 | -25.75548 | -70.64318 | 10059 ft | 201 kts | 185° |
| 2026-04-18 22:54 | -25.76939 | -70.64442 | 10058 ft | 201 kts | 185° |
| 2026-04-18 22:55 | -25.78335 | -70.64560 | 10058 ft | 201 kts | 185° |
| 2026-04-18 22:55 | -25.79711 | -70.64677 | 10059 ft | 201 kts | 185° |
| 2026-04-18 22:55 | -25.81106 | -70.64797 | 10058 ft | 201 kts | 185° |
| 2026-04-18 22:55 | -25.82497 | -70.64921 | 10058 ft | 201 kts | 185° |
| 2026-04-18 22:56 | -25.83887 | -70.65046 | 10058 ft | 201 kts | 185° |
| 2026-04-18 22:56 | -25.85280 | -70.65167 | 10059 ft | 201 kts | 185° |
| 2026-04-18 22:56 | -25.86672 | -70.65286 | 10059 ft | 201 kts | 185° |
| 2026-04-18 22:56 | -25.88062 | -70.65405 | 10056 ft | 200 kts | 185° |
| 2026-04-18 22:57 | -25.89447 | -70.65524 | 10060 ft | 200 kts | 185° |
| 2026-04-18 22:57 | -25.90815 | -70.65649 | 10061 ft | 200 kts | 185° |
| 2026-04-18 22:57 | -25.92204 | -70.65773 | 10061 ft | 200 kts | 185° |
| 2026-04-18 22:57 | -25.93592 | -70.65890 | 10061 ft | 200 kts | 185° |
| 2026-04-18 22:58 | -25.94978 | -70.66007 | 10061 ft | 200 kts | 185° |
| 2026-04-18 22:58 | -25.96364 | -70.66128 | 10061 ft | 200 kts | 185° |
| 2026-04-18 22:58 | -25.97752 | -70.66252 | 10061 ft | 200 kts | 185° |
| 2026-04-18 22:58 | -25.99136 | -70.66375 | 10061 ft | 200 kts | 185° |
| 2026-04-18 22:59 | -26.00522 | -70.66496 | 10061 ft | 200 kts | 185° |
| 2026-04-18 22:59 | -26.01910 | -70.66615 | 10061 ft | 200 kts | 185° |
| 2026-04-18 22:59 | -26.03278 | -70.66734 | 10061 ft | 200 kts | 185° |
| 2026-04-18 22:59 | -26.04666 | -70.66855 | 10061 ft | 200 kts | 185° |
| 2026-04-18 23:00 | -26.06053 | -70.66976 | 10062 ft | 200 kts | 185° |
| 2026-04-18 23:00 | -26.07440 | -70.67097 | 10063 ft | 200 kts | 185° |
| 2026-04-18 23:00 | -26.08827 | -70.67220 | 10064 ft | 200 kts | 185° |
| 2026-04-18 23:00 | -26.10214 | -70.67341 | 10064 ft | 200 kts | 185° |
| 2026-04-18 23:01 | -26.11600 | -70.67463 | 10064 ft | 200 kts | 185° |
| 2026-04-18 23:01 | -26.12986 | -70.67584 | 10062 ft | 200 kts | 185° |
| 2026-04-18 23:01 | -26.14376 | -70.67703 | 10065 ft | 200 kts | 185° |
| 2026-04-18 23:01 | -26.15748 | -70.67823 | 10062 ft | 201 kts | 185° |
| 2026-04-18 23:02 | -26.17140 | -70.67947 | 10064 ft | 201 kts | 185° |
| 2026-04-18 23:02 | -26.18533 | -70.68071 | 10064 ft | 201 kts | 185° |
| 2026-04-18 23:02 | -26.19926 | -70.68193 | 10064 ft | 201 kts | 185° |
| 2026-04-18 23:02 | -26.21318 | -70.68313 | 10064 ft | 201 kts | 185° |
| 2026-04-18 23:03 | -26.22711 | -70.68434 | 10064 ft | 201 kts | 185° |
| 2026-04-18 23:03 | -26.24106 | -70.68556 | 10064 ft | 201 kts | 185° |
| 2026-04-18 23:03 | -26.25500 | -70.68680 | 10064 ft | 201 kts | 185° |
| 2026-04-18 23:03 | -26.26875 | -70.68802 | 10064 ft | 201 kts | 185° |
| 2026-04-18 23:04 | -26.28271 | -70.68923 | 10063 ft | 201 kts | 185° |
| 2026-04-18 23:04 | -26.29665 | -70.69044 | 10064 ft | 201 kts | 185° |
| 2026-04-18 23:04 | -26.31060 | -70.69167 | 10064 ft | 201 kts | 185° |
| 2026-04-18 23:04 | -26.32453 | -70.69291 | 10064 ft | 201 kts | 185° |
| 2026-04-18 23:05 | -26.33848 | -70.69415 | 10067 ft | 201 kts | 185° |
| 2026-04-18 23:05 | -26.35244 | -70.69536 | 10067 ft | 201 kts | 185° |
| 2026-04-18 23:05 | -26.36639 | -70.69657 | 10067 ft | 201 kts | 185° |
| 2026-04-18 23:05 | -26.38016 | -70.69778 | 10067 ft | 201 kts | 185° |
| 2026-04-18 23:06 | -26.39410 | -70.69902 | 10070 ft | 201 kts | 185° |
| 2026-04-18 23:06 | -26.40806 | -70.70025 | 10070 ft | 201 kts | 185° |
| 2026-04-18 23:06 | -26.42201 | -70.70147 | 10070 ft | 201 kts | 185° |
| 2026-04-18 23:06 | -26.43597 | -70.70270 | 10070 ft | 202 kts | 185° |
| 2026-04-18 23:07 | -26.44999 | -70.70392 | 10070 ft | 202 kts | 185° |
| 2026-04-18 23:07 | -26.46402 | -70.70517 | 10069 ft | 202 kts | 185° |
| 2026-04-18 23:07 | -26.47804 | -70.70642 | 10069 ft | 202 kts | 185° |
| 2026-04-18 23:07 | -26.49206 | -70.70765 | 10070 ft | 202 kts | 185° |
| 2026-04-18 23:08 | -26.50609 | -70.70888 | 10068 ft | 202 kts | 185° |
| 2026-04-18 23:08 | -26.51993 | -70.71009 | 10069 ft | 202 kts | 185° |
| 2026-04-18 23:08 | -26.53395 | -70.71133 | 10069 ft | 202 kts | 185° |
| 2026-04-18 23:08 | -26.54797 | -70.71258 | 10070 ft | 202 kts | 185° |
| 2026-04-18 23:09 | -26.56198 | -70.71381 | 10067 ft | 202 kts | 185° |
| 2026-04-18 23:09 | -26.57601 | -70.71504 | 10067 ft | 202 kts | 185° |
| 2026-04-18 23:09 | -26.59002 | -70.71628 | 10067 ft | 202 kts | 185° |
| 2026-04-18 23:09 | -26.60404 | -70.71752 | 10067 ft | 202 kts | 185° |
| 2026-04-18 23:10 | -26.61806 | -70.71876 | 10067 ft | 202 kts | 185° |
| 2026-04-18 23:10 | -26.63208 | -70.72000 | 10067 ft | 202 kts | 185° |
| 2026-04-18 23:10 | -26.64590 | -70.72121 | 10067 ft | 202 kts | 185° |
| 2026-04-18 23:10 | -26.65993 | -70.72245 | 10067 ft | 202 kts | 185° |
| 2026-04-18 23:11 | -26.67395 | -70.72369 | 10070 ft | 202 kts | 185° |
| 2026-04-18 23:11 | -26.68798 | -70.72494 | 10070 ft | 202 kts | 185° |
| 2026-04-18 23:11 | -26.70202 | -70.72618 | 10071 ft | 202 kts | 185° |
| 2026-04-18 23:11 | -26.71606 | -70.72741 | 10069 ft | 203 kts | 185° |
| 2026-04-18 23:12 | -26.73012 | -70.72866 | 10078 ft | 203 kts | 185° |
| 2026-04-18 23:12 | -26.74428 | -70.72991 | 10069 ft | 205 kts | 185° |
| 2026-04-18 23:12 | -26.75848 | -70.73116 | 10069 ft | 205 kts | 185° |
| 2026-04-18 23:12 | -26.77249 | -70.73240 | 10069 ft | 205 kts | 185° |
| 2026-04-18 23:13 | -26.78670 | -70.73367 | 10069 ft | 205 kts | 185° |
| 2026-04-18 23:13 | -26.80091 | -70.73494 | 10070 ft | 205 kts | 185° |
| 2026-04-18 23:13 | -26.81513 | -70.73619 | 10070 ft | 205 kts | 185° |
| 2026-04-18 23:13 | -26.82937 | -70.73744 | 10069 ft | 205 kts | 185° |
| 2026-04-18 23:14 | -26.84359 | -70.73870 | 10068 ft | 205 kts | 185° |
| 2026-04-18 23:14 | -26.85777 | -70.73995 | 10069 ft | 204 kts | 185° |
| 2026-04-18 23:14 | -26.87195 | -70.74122 | 10070 ft | 204 kts | 185° |
| 2026-04-18 23:14 | -26.88613 | -70.74249 | 10070 ft | 205 kts | 185° |
| 2026-04-18 23:15 | -26.90015 | -70.74375 | 10069 ft | 205 kts | 185° |
| 2026-04-18 23:15 | -26.91436 | -70.74500 | 10073 ft | 205 kts | 185° |
| 2026-04-18 23:15 | -26.92857 | -70.74624 | 10071 ft | 205 kts | 185° |
| 2026-04-18 23:15 | -26.94275 | -70.74748 | 10072 ft | 205 kts | 185° |
| 2026-04-18 23:16 | -26.95695 | -70.74874 | 10072 ft | 205 kts | 185° |
| 2026-04-18 23:16 | -26.97115 | -70.75003 | 10072 ft | 205 kts | 185° |
| 2026-04-18 23:16 | -26.98535 | -70.75131 | 10072 ft | 205 kts | 185° |
| 2026-04-18 23:16 | -26.99936 | -70.75255 | 10072 ft | 204 kts | 185° |
| 2026-04-18 23:17 | -27.01355 | -70.75380 | 10073 ft | 204 kts | 185° |
| 2026-04-18 23:17 | -27.02771 | -70.75505 | 10073 ft | 204 kts | 185° |
| 2026-04-18 23:17 | -27.04191 | -70.75631 | 10073 ft | 205 kts | 185° |
| 2026-04-18 23:17 | -27.05611 | -70.75758 | 10071 ft | 204 kts | 185° |
| 2026-04-18 23:18 | -27.07029 | -70.75884 | 10071 ft | 204 kts | 185° |
| 2026-04-18 23:18 | -27.08446 | -70.76012 | 10072 ft | 204 kts | 185° |
| 2026-04-18 23:18 | -27.09865 | -70.76138 | 10070 ft | 205 kts | 185° |
| 2026-04-18 23:18 | -27.11266 | -70.76262 | 10070 ft | 205 kts | 185° |
| 2026-04-18 23:19 | -27.12687 | -70.76388 | 10068 ft | 205 kts | 185° |
| 2026-04-18 23:19 | -27.14110 | -70.76514 | 10069 ft | 205 kts | 185° |
| 2026-04-18 23:19 | -27.15529 | -70.76641 | 10068 ft | 205 kts | 185° |
| 2026-04-18 23:19 | -27.16948 | -70.76768 | 10067 ft | 205 kts | 185° |
| 2026-04-18 23:20 | -27.18371 | -70.76895 | 10066 ft | 205 kts | 185° |
| 2026-04-18 23:20 | -27.19792 | -70.77022 | 10069 ft | 205 kts | 185° |
| 2026-04-18 23:20 | -27.21215 | -70.77149 | 10068 ft | 205 kts | 185° |
| 2026-04-18 23:20 | -27.22637 | -70.77276 | 10069 ft | 205 kts | 185° |
| 2026-04-18 23:21 | -27.24040 | -70.77401 | 10068 ft | 205 kts | 185° |
| 2026-04-18 23:21 | -27.25462 | -70.77528 | 10068 ft | 205 kts | 185° |
| 2026-04-18 23:21 | -27.26885 | -70.77655 | 10068 ft | 205 kts | 185° |
| 2026-04-18 23:21 | -27.28307 | -70.77783 | 10069 ft | 205 kts | 186° |
| 2026-04-18 23:22 | -27.29708 | -70.78074 | 10070 ft | 204 kts | 194° |
| 2026-04-18 23:22 | -27.31090 | -70.78443 | 10070 ft | 205 kts | 195° |
| 2026-04-18 23:22 | -27.32480 | -70.78799 | 10069 ft | 205 kts | 193° |
| 2026-04-18 23:23 | -27.35262 | -70.79409 | 10069 ft | 205 kts | 192° |
| 2026-04-18 23:23 | -27.36665 | -70.79707 | 10072 ft | 205 kts | 192° |
| 2026-04-18 23:23 | -27.38068 | -70.80021 | 10068 ft | 206 kts | 193° |
| 2026-04-18 23:23 | -27.39468 | -70.80348 | 10070 ft | 205 kts | 193° |
| 2026-04-18 23:24 | -27.40868 | -70.80675 | 10071 ft | 205 kts | 193° |
| 2026-04-18 23:24 | -27.42267 | -70.80995 | 10068 ft | 205 kts | 193° |
| 2026-04-18 23:24 | -27.43667 | -70.81307 | 10072 ft | 205 kts | 192° |
| 2026-04-18 23:24 | -27.45050 | -70.81613 | 10070 ft | 205 kts | 192° |
| 2026-04-18 23:25 | -27.46452 | -70.81928 | 10073 ft | 206 kts | 193° |
| 2026-04-18 23:25 | -27.47853 | -70.82248 | 10072 ft | 205 kts | 193° |
| 2026-04-18 23:25 | -27.49254 | -70.82568 | 10072 ft | 205 kts | 193° |
| 2026-04-18 23:25 | -27.50652 | -70.82887 | 10075 ft | 205 kts | 193° |
| 2026-04-18 23:26 | -27.52052 | -70.83204 | 10072 ft | 205 kts | 192° |
| 2026-04-18 23:26 | -27.53452 | -70.83520 | 10075 ft | 205 kts | 193° |
| 2026-04-18 23:26 | -27.54853 | -70.83836 | 10075 ft | 205 kts | 193° |
| 2026-04-18 23:26 | -27.56254 | -70.84153 | 10072 ft | 206 kts | 193° |
| 2026-04-18 23:27 | -27.57638 | -70.84468 | 10070 ft | 206 kts | 193° |
| 2026-04-18 23:27 | -27.59042 | -70.84787 | 10072 ft | 206 kts | 193° |
| 2026-04-18 23:27 | -27.60447 | -70.85107 | 10073 ft | 206 kts | 193° |
| 2026-04-18 23:27 | -27.61853 | -70.85427 | 10072 ft | 206 kts | 193° |
| 2026-04-18 23:28 | -27.63258 | -70.85745 | 10075 ft | 206 kts | 193° |
| 2026-04-18 23:28 | -27.64663 | -70.86064 | 10074 ft | 206 kts | 193° |
| 2026-04-18 23:28 | -27.66067 | -70.86382 | 10072 ft | 206 kts | 193° |
| 2026-04-18 23:28 | -27.67473 | -70.86702 | 10073 ft | 206 kts | 193° |
| 2026-04-18 23:29 | -27.68877 | -70.87022 | 10072 ft | 206 kts | 193° |
| 2026-04-18 23:29 | -27.70282 | -70.87342 | 10074 ft | 206 kts | 193° |
| 2026-04-18 23:29 | -27.71668 | -70.87657 | 10071 ft | 206 kts | 193° |
| 2026-04-18 23:29 | -27.73074 | -70.87976 | 10071 ft | 206 kts | 193° |
| 2026-04-18 23:30 | -27.74479 | -70.88294 | 10076 ft | 206 kts | 193° |
| 2026-04-18 23:30 | -27.75887 | -70.88615 | 10074 ft | 206 kts | 193° |
| 2026-04-18 23:30 | -27.77295 | -70.88939 | 10075 ft | 206 kts | 193° |
| 2026-04-18 23:30 | -27.78702 | -70.89261 | 10074 ft | 206 kts | 193° |
| 2026-04-18 23:31 | -27.80109 | -70.89579 | 10072 ft | 206 kts | 193° |
| 2026-04-18 23:31 | -27.81516 | -70.89897 | 10072 ft | 206 kts | 193° |
| 2026-04-18 23:31 | -27.82922 | -70.90218 | 10072 ft | 206 kts | 193° |
| 2026-04-18 23:31 | -27.84310 | -70.90536 | 10072 ft | 206 kts | 193° |
| 2026-04-18 23:32 | -27.85718 | -70.90859 | 10071 ft | 206 kts | 193° |
| 2026-04-18 23:32 | -27.87125 | -70.91179 | 10069 ft | 206 kts | 193° |
| 2026-04-18 23:32 | -27.88520 | -70.91495 | 10074 ft | 205 kts | 193° |
| 2026-04-18 23:32 | -27.89917 | -70.91815 | 10068 ft | 205 kts | 193° |
| 2026-04-18 23:33 | -27.91320 | -70.92137 | 10072 ft | 206 kts | 193° |
| 2026-04-18 23:33 | -27.92726 | -70.92458 | 10074 ft | 206 kts | 193° |
| 2026-04-18 23:33 | -27.94135 | -70.92779 | 10073 ft | 207 kts | 193° |
| 2026-04-18 23:33 | -27.95545 | -70.93100 | 10073 ft | 207 kts | 193° |
| 2026-04-18 23:34 | -27.96938 | -70.93419 | 10074 ft | 207 kts | 193° |
| 2026-04-18 23:34 | -27.98348 | -70.93742 | 10071 ft | 207 kts | 193° |
| 2026-04-18 23:34 | -27.99762 | -70.94064 | 10070 ft | 207 kts | 193° |
| 2026-04-18 23:34 | -28.01173 | -70.94388 | 10072 ft | 207 kts | 193° |
| 2026-04-18 23:35 | -28.02584 | -70.94710 | 10069 ft | 207 kts | 193° |
| 2026-04-18 23:35 | -28.03994 | -70.95031 | 10068 ft | 207 kts | 193° |
| 2026-04-18 23:35 | -28.05402 | -70.95356 | 10068 ft | 207 kts | 193° |
| 2026-04-18 23:35 | -28.06813 | -70.95679 | 10066 ft | 206 kts | 193° |
| 2026-04-18 23:36 | -28.08200 | -70.95998 | 10069 ft | 206 kts | 193° |
| 2026-04-18 23:36 | -28.09609 | -70.96322 | 10067 ft | 206 kts | 193° |
| 2026-04-18 23:36 | -28.11017 | -70.96642 | 10069 ft | 206 kts | 193° |
| 2026-04-18 23:36 | -28.12423 | -70.96962 | 10068 ft | 206 kts | 193° |
| 2026-04-18 23:37 | -28.13831 | -70.97282 | 10069 ft | 206 kts | 193° |
| 2026-04-18 23:37 | -28.15237 | -70.97609 | 10067 ft | 206 kts | 193° |
| 2026-04-18 23:37 | -28.16641 | -70.97935 | 10069 ft | 207 kts | 193° |
| 2026-04-18 23:37 | -28.18053 | -70.98259 | 10071 ft | 207 kts | 193° |
| 2026-04-18 23:38 | -28.19468 | -70.98581 | 10070 ft | 208 kts | 193° |
| 2026-04-18 23:38 | -28.20883 | -70.98901 | 10068 ft | 207 kts | 193° |
| 2026-04-18 23:38 | -28.22276 | -70.99222 | 10068 ft | 207 kts | 193° |
| 2026-04-18 23:38 | -28.23690 | -70.99550 | 10068 ft | 208 kts | 193° |
| 2026-04-18 23:39 | -28.25105 | -70.99877 | 10071 ft | 208 kts | 193° |
| 2026-04-18 23:39 | -28.26520 | -71.00202 | 10071 ft | 207 kts | 193° |
| 2026-04-18 23:39 | -28.27935 | -71.00525 | 10072 ft | 207 kts | 193° |
| 2026-04-18 23:39 | -28.29349 | -71.00849 | 10072 ft | 208 kts | 193° |
| 2026-04-18 23:40 | -28.30767 | -71.01175 | 10069 ft | 208 kts | 193° |
| 2026-04-18 23:40 | -28.32184 | -71.01504 | 10070 ft | 208 kts | 193° |
| 2026-04-18 23:40 | -28.33600 | -71.01831 | 10073 ft | 208 kts | 193° |
| 2026-04-18 23:40 | -28.35018 | -71.02157 | 10073 ft | 208 kts | 193° |
| 2026-04-18 23:41 | -28.36415 | -71.02476 | 10074 ft | 207 kts | 193° |
| 2026-04-18 23:41 | -28.37829 | -71.02800 | 10075 ft | 208 kts | 193° |
| 2026-04-18 23:41 | -28.39247 | -71.03128 | 10074 ft | 208 kts | 193° |
| 2026-04-18 23:41 | -28.40664 | -71.03457 | 10073 ft | 208 kts | 193° |
| 2026-04-18 23:42 | -28.42083 | -71.03784 | 10074 ft | 208 kts | 193° |
| 2026-04-18 23:42 | -28.43498 | -71.04110 | 10073 ft | 208 kts | 193° |
| 2026-04-18 23:42 | -28.44915 | -71.04435 | 10074 ft | 207 kts | 193° |
| 2026-04-18 23:42 | -28.46323 | -71.04761 | 10074 ft | 206 kts | 193° |
| 2026-04-18 23:43 | -28.47733 | -71.05087 | 10075 ft | 207 kts | 193° |
| 2026-04-18 23:43 | -28.49129 | -71.05409 | 10074 ft | 207 kts | 193° |
| 2026-04-18 23:43 | -28.50544 | -71.05735 | 10074 ft | 208 kts | 193° |
| 2026-04-18 23:43 | -28.51959 | -71.06062 | 10076 ft | 208 kts | 193° |
| 2026-04-18 23:44 | -28.53376 | -71.06389 | 10075 ft | 207 kts | 193° |
| 2026-04-18 23:44 | -28.54788 | -71.06716 | 10075 ft | 207 kts | 193° |
| 2026-04-18 23:44 | -28.56203 | -71.07044 | 10075 ft | 208 kts | 193° |
| 2026-04-18 23:44 | -28.57619 | -71.07373 | 10074 ft | 208 kts | 193° |
| 2026-04-18 23:45 | -28.59038 | -71.07700 | 10072 ft | 208 kts | 193° |
| 2026-04-18 23:45 | -28.60440 | -71.08021 | 10073 ft | 209 kts | 193° |
| 2026-04-18 23:45 | -28.61864 | -71.08351 | 10071 ft | 209 kts | 193° |
| 2026-04-18 23:45 | -28.63288 | -71.08680 | 10073 ft | 209 kts | 193° |
| 2026-04-18 23:46 | -28.64710 | -71.09014 | 10071 ft | 209 kts | 193° |
| 2026-04-18 23:46 | -28.66133 | -71.09343 | 10066 ft | 209 kts | 193° |
| 2026-04-18 23:46 | -28.67554 | -71.09670 | 10073 ft | 208 kts | 193° |
| 2026-04-18 23:46 | -28.68975 | -71.09998 | 10073 ft | 209 kts | 193° |
| 2026-04-18 23:47 | -28.70398 | -71.10328 | 10073 ft | 209 kts | 193° |
| 2026-04-18 23:47 | -28.71820 | -71.10659 | 10073 ft | 209 kts | 193° |
| 2026-04-18 23:47 | -28.73226 | -71.10987 | 10070 ft | 209 kts | 193° |
| 2026-04-18 23:47 | -28.74645 | -71.11316 | 10072 ft | 208 kts | 193° |
| 2026-04-18 23:48 | -28.76063 | -71.11641 | 10075 ft | 208 kts | 193° |
| 2026-04-18 23:48 | -28.77477 | -71.11971 | 10073 ft | 207 kts | 193° |
| 2026-04-18 23:48 | -28.78897 | -71.12303 | 10071 ft | 209 kts | 193° |
| 2026-04-18 23:48 | -28.80320 | -71.12635 | 10074 ft | 209 kts | 193° |
| 2026-04-18 23:49 | -28.81747 | -71.12965 | 10071 ft | 210 kts | 193° |
| 2026-04-18 23:49 | -28.83174 | -71.13294 | 10074 ft | 209 kts | 193° |
| 2026-04-18 23:49 | -28.84580 | -71.13619 | 10073 ft | 209 kts | 193° |
| 2026-04-18 23:49 | -28.86006 | -71.13950 | 10069 ft | 208 kts | 193° |
| 2026-04-18 23:50 | -28.87419 | -71.14278 | 10073 ft | 206 kts | 194° |
| 2026-04-18 23:50 | -28.88831 | -71.14616 | 10075 ft | 208 kts | 194° |
| 2026-04-18 23:50 | -28.90253 | -71.14950 | 10077 ft | 209 kts | 193° |
| 2026-04-18 23:50 | -28.91679 | -71.15278 | 10069 ft | 208 kts | 193° |
| 2026-04-18 23:51 | -28.93101 | -71.15600 | 10078 ft | 208 kts | 193° |
| 2026-04-18 23:51 | -28.94519 | -71.15927 | 10077 ft | 208 kts | 193° |
| 2026-04-18 23:51 | -28.95940 | -71.16264 | 10076 ft | 209 kts | 193° |
| 2026-04-18 23:51 | -28.97344 | -71.16596 | 10073 ft | 209 kts | 193° |
| 2026-04-18 23:52 | -28.98771 | -71.16932 | 10078 ft | 209 kts | 193° |
| 2026-04-18 23:52 | -29.00199 | -71.17261 | 10079 ft | 209 kts | 193° |
| 2026-04-18 23:52 | -29.01625 | -71.17588 | 10077 ft | 209 kts | 193° |
| 2026-04-18 23:52 | -29.03049 | -71.17918 | 10078 ft | 209 kts | 193° |
| 2026-04-18 23:53 | -29.04474 | -71.18255 | 10082 ft | 209 kts | 193° |
| 2026-04-18 23:53 | -29.05903 | -71.18591 | 10081 ft | 210 kts | 193° |
| 2026-04-18 23:53 | -29.07330 | -71.18923 | 10081 ft | 209 kts | 193° |
| 2026-04-18 23:53 | -29.08755 | -71.19258 | 10084 ft | 209 kts | 193° |
| 2026-04-18 23:54 | -29.10162 | -71.19589 | 10081 ft | 209 kts | 193° |
| 2026-04-18 23:54 | -29.11579 | -71.19916 | 10085 ft | 206 kts | 193° |
| 2026-04-18 23:54 | -29.12991 | -71.20241 | 10084 ft | 208 kts | 193° |
| 2026-04-18 23:54 | -29.14411 | -71.20572 | 10084 ft | 209 kts | 193° |
| 2026-04-18 23:55 | -29.15836 | -71.20910 | 10083 ft | 209 kts | 193° |
| 2026-04-18 23:55 | -29.17261 | -71.21248 | 10083 ft | 210 kts | 193° |
| 2026-04-18 23:55 | -29.18691 | -71.21583 | 10082 ft | 210 kts | 193° |
| 2026-04-18 23:55 | -29.20125 | -71.21914 | 10082 ft | 210 kts | 193° |
| 2026-04-18 23:56 | -29.21559 | -71.22247 | 10078 ft | 210 kts | 193° |
| 2026-04-18 23:56 | -29.22967 | -71.22576 | 10083 ft | 209 kts | 193° |
| 2026-04-18 23:56 | -29.24385 | -71.22915 | 10081 ft | 208 kts | 193° |
| 2026-04-18 23:56 | -29.25804 | -71.23247 | 10081 ft | 208 kts | 193° |
| 2026-04-18 23:57 | -29.27227 | -71.23578 | 10088 ft | 209 kts | 193° |
| 2026-04-18 23:57 | -29.28654 | -71.23912 | 10087 ft | 210 kts | 193° |
| 2026-04-18 23:57 | -29.30089 | -71.24249 | 10085 ft | 211 kts | 193° |
| 2026-04-18 23:57 | -29.31521 | -71.24588 | 10085 ft | 210 kts | 193° |
| 2026-04-18 23:58 | -29.32950 | -71.24922 | 10087 ft | 209 kts | 193° |
| 2026-04-18 23:58 | -29.34381 | -71.25250 | 10088 ft | 210 kts | 193° |
| 2026-04-18 23:58 | -29.35812 | -71.25588 | 10087 ft | 210 kts | 194° |
| 2026-04-18 23:58 | -29.37224 | -71.25927 | 10089 ft | 210 kts | 194° |
| 2026-04-18 23:59 | -29.38655 | -71.26267 | 10088 ft | 210 kts | 194° |
| 2026-04-18 23:59 | -29.40088 | -71.26600 | 10089 ft | 210 kts | 193° |
| 2026-04-18 23:59 | -29.41523 | -71.26934 | 10088 ft | 210 kts | 194° |
| 2026-04-18 23:59 | -29.42957 | -71.27269 | 10082 ft | 210 kts | 193° |
| 2026-04-19 00:00 | -29.44384 | -71.27606 | 10089 ft | 210 kts | 194° |
| 2026-04-19 00:00 | -29.45812 | -71.27943 | 10092 ft | 210 kts | 194° |
| 2026-04-19 00:00 | -29.47222 | -71.28278 | 10089 ft | 210 kts | 194° |
| 2026-04-19 00:00 | -29.48654 | -71.28615 | 10095 ft | 210 kts | 194° |
| 2026-04-19 00:01 | -29.50088 | -71.28951 | 10084 ft | 211 kts | 194° |
| 2026-04-19 00:01 | -29.51525 | -71.29288 | 10088 ft | 211 kts | 193° |
| 2026-04-19 00:01 | -29.52960 | -71.29624 | 10089 ft | 210 kts | 194° |
| 2026-04-19 00:01 | -29.54394 | -71.29963 | 10086 ft | 210 kts | 194° |
| 2026-04-19 00:02 | -29.55825 | -71.30303 | 10090 ft | 210 kts | 194° |
| 2026-04-19 00:02 | -29.57250 | -71.30640 | 10090 ft | 208 kts | 194° |
| 2026-04-19 00:02 | -29.58671 | -71.30976 | 10092 ft | 209 kts | 194° |
| 2026-04-19 00:02 | -29.60078 | -71.31307 | 10093 ft | 209 kts | 193° |
| 2026-04-19 00:03 | -29.61504 | -71.31641 | 10099 ft | 209 kts | 194° |
| 2026-04-19 00:03 | -29.62934 | -71.31975 | 10092 ft | 210 kts | 194° |
| 2026-04-19 00:03 | -29.64367 | -71.32315 | 10093 ft | 210 kts | 194° |
| 2026-04-19 00:03 | -29.65798 | -71.32659 | 10093 ft | 210 kts | 194° |
| 2026-04-19 00:04 | -29.67229 | -71.33000 | 10094 ft | 210 kts | 194° |
| 2026-04-19 00:04 | -29.68661 | -71.33337 | 10094 ft | 210 kts | 194° |
| 2026-04-19 00:04 | -29.70093 | -71.33671 | 10094 ft | 210 kts | 194° |
| 2026-04-19 00:04 | -29.71525 | -71.34007 | 10094 ft | 210 kts | 194° |
| 2026-04-19 00:05 | -29.72937 | -71.34342 | 10094 ft | 210 kts | 194° |
| 2026-04-19 00:05 | -29.74369 | -71.34684 | 10094 ft | 210 kts | 194° |
| 2026-04-19 00:05 | -29.75800 | -71.35024 | 10094 ft | 210 kts | 194° |
| 2026-04-19 00:05 | -29.77231 | -71.35362 | 10094 ft | 210 kts | 194° |